Amherst Junction, Wisconsin
Current Conditions -  °F | °C
As of 5:55 PM on Friday 21 Nov 2014 (Local Time) from KSTE Reporting Station
Clear Clear  
Wind Chill: 14°   Ceiling: Unl
Heat Index: 23°   Visibility: 10mi
Dew Point:   Wind: 9mph
Humidity: 49%   Direction: 190°S
Pressure: 30.12"   Gusts: NA
Location:  44.47°N, 89.31°W
Report Text: KSTE 212355Z AUTO 19008KT 10SM CLR M05/M14 A3012 RMK AO2 T10481141 11037 21069
Loading
Personal Weather Stations






























Interactive Weather Map New forecast layout! Learn more

10-Day Weather Forecast

Advertisements
Track Severe Weather on mobile